»·PEaware :: DAL1505 KSFO-KSEA

DAL1505 :: KSFO-KSEA

FLIGHT INFORMATION

Flight Status: Arrived
Operator:
Delta Air Lines
More flights by this operator :: More flights under this callsign
Pilot: Lucas B. (17570)
Aircraft: AIRBUS A321
(A321)
More flights by this aircraft type
Origin: KSFO San Francisco Intl
United States
Destination: KSEA Seattle-Tacoma Intl
United States
More flights between these airports :: More routes between these airports
Route: +TRUKN2 DEDHD RBL LMT HAWKZ7
File this flight plan on PilotEdge
Remarks: RMK / SIMBRIEF
Altitude:
(Current/Filed)
34,000ft
Speed:
(Current/Filed)
452kts
Departed: 24-Oct-20 09:31 AM
Arrived: 24-Oct-20 11:08 AM
Distance/Time
Traveled:
589nm/1:37
Distance/Time
To Go:
Arrived

Flight Plot

Page will automatically refresh every two minutes.

Flight plan parsing failed; only flown route is shown


Map Options




Map Legend


Flown Route
Filed Route
Departure Airport
Arrival Airport
Navaid (VOR, NDB)
Fix

Horizontal Profiles

Position Reports

Time Latitude Longitude Heading Altitude Ground
Speed
24-Oct-20 09:13 37.613377 -122.383748 213 22ft 0kts
24-Oct-20 09:14 37.613377 -122.383748 213 22ft 0kts
24-Oct-20 09:15 37.613377 -122.383748 213 22ft 0kts
24-Oct-20 09:16 37.613377 -122.383748 213 22ft 0kts
24-Oct-20 09:17 37.613377 -122.383748 213 22ft 0kts
24-Oct-20 09:18 37.613381 -122.383744 213 22ft 1kts
24-Oct-20 09:19 37.613871 -122.383446 164 22ft 2kts
24-Oct-20 09:20 37.614069 -122.383674 117 22ft 0kts
24-Oct-20 09:21 37.614068 -122.383674 117 22ft 0kts
24-Oct-20 09:22 37.614068 -122.383674 117 22ft 0kts
24-Oct-20 09:23 37.614068 -122.383674 117 22ft 0kts
24-Oct-20 09:24 37.613734 -122.382886 119 22ft 9kts
24-Oct-20 09:25 37.612027 -122.382698 209 22ft 7kts
24-Oct-20 09:26 37.610028 -122.384097 212 22ft 3kts
24-Oct-20 09:27 37.608974 -122.383634 127 22ft 0kts
24-Oct-20 09:28 37.608963 -122.383616 127 22ft 1kts
24-Oct-20 09:29 37.609278 -122.382028 27 22ft 8kts
24-Oct-20 09:30 37.636959 -122.363499 34 896ft 173kts
24-Oct-20 09:31 37.666587 -122.311616 55 2783ft 209kts
24-Oct-20 09:32 37.704547 -122.239918 56 4610ft 270kts
24-Oct-20 09:33 37.770860 -122.205497 5 7526ft 280kts
24-Oct-20 09:34 37.849240 -122.193355 6 10296ft 291kts
24-Oct-20 09:35 37.938247 -122.178832 7 11484ft 355kts
24-Oct-20 09:36 38.044314 -122.161343 7 13500ft 388kts
24-Oct-20 09:37 38.153642 -122.143309 6 15926ft 400kts
24-Oct-20 09:38 38.266201 -122.124733 6 18134ft 412kts
24-Oct-20 09:39 38.382126 -122.116248 356 20153ft 422kts
24-Oct-20 09:40 38.500985 -122.124683 355 21900ft 435kts
24-Oct-20 09:41 38.623378 -122.133291 355 23447ft 446kts
24-Oct-20 09:42 38.748168 -122.141964 356 24909ft 454kts
24-Oct-20 09:43 38.872669 -122.150616 356 26917ft 444kts
24-Oct-20 09:44 38.994979 -122.159045 356 28538ft 439kts
24-Oct-20 09:45 39.116413 -122.167514 355 29883ft 437kts
24-Oct-20 09:46 39.237459 -122.175987 355 31194ft 434kts
24-Oct-20 09:48 39.357184 -122.184400 356 32359ft 431kts
24-Oct-20 09:49 39.476087 -122.192780 356 33416ft 428kts
24-Oct-20 09:50 39.594410 -122.201140 356 34058ft 427kts
24-Oct-20 09:51 39.712752 -122.209520 356 34065ft 427kts
24-Oct-20 09:52 39.831413 -122.217954 356 34066ft 427kts
24-Oct-20 09:53 39.949748 -122.226370 356 34066ft 427kts
24-Oct-20 09:54 40.068121 -122.233251 0 34065ft 428kts
24-Oct-20 09:55 40.186134 -122.216328 9 34066ft 429kts
24-Oct-20 09:56 40.303419 -122.187865 9 34066ft 429kts
24-Oct-20 09:57 40.420527 -122.159520 9 34066ft 429kts
24-Oct-20 09:58 40.537722 -122.131102 9 34066ft 429kts
24-Oct-20 09:59 40.654648 -122.102635 9 34066ft 429kts
24-Oct-20 10:00 40.771850 -122.073982 9 34066ft 430kts
24-Oct-20 10:01 40.889377 -122.045142 9 34066ft 431kts
24-Oct-20 10:01 40.987462 -122.020972 8 34067ft 430kts
24-Oct-20 10:03 41.123221 -121.987265 6 34067ft 424kts
24-Oct-20 10:04 41.238589 -121.958884 6 34066ft 423kts
24-Oct-20 10:05 41.354141 -121.930182 6 34065ft 424kts
24-Oct-20 10:06 41.470080 -121.901224 6 34066ft 424kts
24-Oct-20 10:06 41.566407 -121.877090 6 34066ft 424kts
24-Oct-20 10:08 41.701545 -121.843098 6 34073ft 425kts
24-Oct-20 10:08 41.798490 -121.818629 6 34083ft 425kts
24-Oct-20 10:09 41.914220 -121.789248 6 34090ft 425kts
24-Oct-20 10:10 42.030552 -121.759561 6 34092ft 426kts
24-Oct-20 10:11 42.147069 -121.740843 357 34092ft 421kts
24-Oct-20 10:12 42.262899 -121.753412 348 34092ft 418kts
24-Oct-20 10:13 42.377387 -121.779409 347 34092ft 416kts
24-Oct-20 10:14 42.490969 -121.805351 347 34092ft 415kts
24-Oct-20 10:15 42.604665 -121.831401 347 34092ft 414kts
24-Oct-20 10:16 42.717863 -121.857421 347 34092ft 414kts
24-Oct-20 10:17 42.831381 -121.883619 347 34092ft 414kts
24-Oct-20 10:18 42.944279 -121.909738 347 34092ft 412kts
24-Oct-20 10:19 43.056663 -121.935819 347 34093ft 408kts
24-Oct-20 10:20 43.168606 -121.961852 347 34092ft 409kts
24-Oct-20 10:21 43.280546 -121.987993 347 34094ft 409kts
24-Oct-20 10:22 43.392657 -122.014396 347 34113ft 409kts
24-Oct-20 10:23 43.504362 -122.040888 347 34127ft 408kts
24-Oct-20 10:24 43.616460 -122.067475 347 34138ft 404kts
24-Oct-20 10:25 43.727045 -122.093796 347 34144ft 404kts
24-Oct-20 10:26 43.838072 -122.120301 347 34146ft 403kts
24-Oct-20 10:27 43.948757 -122.146816 347 34148ft 404kts
24-Oct-20 10:28 44.059642 -122.173477 347 34146ft 403kts
24-Oct-20 10:29 44.170363 -122.200051 347 34148ft 404kts
24-Oct-20 10:30 44.281706 -122.226994 347 34152ft 404kts
24-Oct-20 10:31 44.392516 -122.253953 347 34152ft 404kts
24-Oct-20 10:32 44.503745 -122.281084 347 34150ft 403kts
24-Oct-20 10:33 44.614654 -122.308184 347 34149ft 405kts
24-Oct-20 10:34 44.727442 -122.335918 346 34157ft 411kts
24-Oct-20 10:35 44.840263 -122.363916 346 34166ft 410kts
24-Oct-20 10:36 44.952804 -122.391867 346 34173ft 410kts
24-Oct-20 10:37 45.065139 -122.419561 344 34177ft 389kts
24-Oct-20 10:38 45.169459 -122.445502 343 34176ft 372kts
24-Oct-20 10:39 45.271618 -122.471219 343 34183ft 372kts
24-Oct-20 10:40 45.373458 -122.496975 343 34191ft 372kts
24-Oct-20 10:41 45.475337 -122.522741 343 34198ft 372kts
24-Oct-20 10:42 45.575715 -122.548224 343 34200ft 372kts
24-Oct-20 10:43 45.674071 -122.573265 343 34200ft 372kts
24-Oct-20 10:44 45.773937 -122.598645 343 34107ft 373kts
24-Oct-20 10:45 45.874417 -122.623449 343 33007ft 366kts
24-Oct-20 10:46 45.974996 -122.648382 344 30527ft 368kts
24-Oct-20 10:47 46.076961 -122.673976 344 27674ft 374kts
24-Oct-20 10:48 46.182694 -122.695905 347 24204ft 393kts
24-Oct-20 10:49 46.292050 -122.717394 349 21048ft 394kts
24-Oct-20 10:50 46.400656 -122.726175 355 18556ft 387kts
24-Oct-20 10:51 46.507186 -122.729818 355 16220ft 376kts
24-Oct-20 10:52 46.610550 -122.733434 356 13916ft 368kts
24-Oct-20 10:53 46.711565 -122.736980 356 12816ft 356kts
24-Oct-20 10:54 46.805457 -122.716434 34 12026ft 339kts
24-Oct-20 10:55 46.871057 -122.632246 39 10494ft 300kts
24-Oct-20 10:56 46.929369 -122.548932 42 9293ft 275kts
24-Oct-20 10:57 46.982927 -122.470513 34 7979ft 263kts
24-Oct-20 10:58 47.045929 -122.415237 28 7170ft 259kts
24-Oct-20 10:59 47.107862 -122.362775 27 6003ft 248kts
24-Oct-20 11:00 47.168061 -122.328026 17 5439ft 222kts
24-Oct-20 11:01 47.224859 -122.310506 2 4722ft 187kts
24-Oct-20 11:02 47.269894 -122.309729 1 3593ft 137kts
24-Oct-20 11:03 47.306502 -122.309226 1 2686ft 130kts
24-Oct-20 11:04 47.342617 -122.308832 0 2092ft 128kts
24-Oct-20 11:05 47.378246 -122.308543 359 1437ft 127kts
24-Oct-20 11:06 47.414048 -122.308211 359 792ft 127kts
24-Oct-20 11:07 47.442701 -122.307934 1 442ft 15kts
24-Oct-20 11:08 47.443470 -122.306315 90 442ft 0kts

Navigation Log

Ident Type
Flight plan parsing failed, navigation log unavailable